Time;durP1;ratioP1;P1;durP2;ratioP2;P2;SDS_P1;SDS_P2;PMS_P1;PMS_P2;Temp;Humidity;BMP_temperature;BMP_pressure;BME280_temperature;BME280_humidity;BME280_pressure;Samples;Min_cycle;Max_cycle;Signal;HPM_P1;HPM_P2
2023/01/29 00:01:42;;;;;;;23.92;18.85;;;2.70;99.90;;;;;;4994473;28;20077;-77
2023/01/29 00:04:08;;;;;;;25.40;18.98;;;2.70;99.90;;;;;;5010397;28;20421;-78
2023/01/29 00:06:34;;;;;;;24.75;18.95;;;2.70;99.90;;;;;;5012275;28;20057;-78
2023/01/29 00:08:59;;;;;;;23.55;19.13;;;2.70;99.90;;;;;;5013482;28;20096;-78
2023/01/29 00:11:25;;;;;;;25.13;19.20;;;2.70;99.90;;;;;;5012614;28;20046;-79
2023/01/29 00:13:52;;;;;;;25.60;18.65;;;2.70;99.90;;;;;;4994633;28;20038;-79
2023/01/29 00:16:17;;;;;;;22.70;18.80;;;2.70;99.90;;;;;;5008289;28;20489;-79
2023/01/29 00:18:43;;;;;;;23.73;18.40;;;2.70;99.90;;;;;;5013094;28;20046;-78
2023/01/29 00:21:14;;;;;;;24.27;18.70;;;2.70;99.90;;;;;;4997587;28;20050;-79
2023/01/29 00:23:40;;;;;;;22.48;18.20;;;2.80;99.90;;;;;;5013188;28;20038;-79
2023/01/29 00:26:06;;;;;;;25.77;18.35;;;2.70;99.90;;;;;;5011176;28;20095;-78
2023/01/29 00:28:32;;;;;;;23.92;18.63;;;2.70;99.90;;;;;;5016037;28;20049;-78
2023/01/29 00:30:58;;;;;;;23.90;19.10;;;2.70;99.90;;;;;;4997509;28;20452;-78
2023/01/29 00:33:23;;;;;;;24.33;17.23;;;2.70;99.90;;;;;;5003252;28;20369;-78
2023/01/29 00:35:49;;;;;;;23.27;18.80;;;2.70;99.90;;;;;;4993747;28;20544;-78
2023/01/29 00:38:15;;;;;;;22.92;17.75;;;2.80;99.90;;;;;;4996208;28;20478;-79
2023/01/29 00:46:09;;;;;;;25.35;18.45;;;2.70;99.90;;;;;;5015460;28;20132;-79
2023/01/29 00:48:35;;;;;;;23.92;18.95;;;2.70;99.90;;;;;;4998404;28;20078;-79
2023/01/29 00:51:02;;;;;;;25.63;17.52;;;2.70;99.90;;;;;;4997038;28;20046;-79
2023/01/29 00:53:28;;;;;;;22.05;17.75;;;2.80;99.90;;;;;;5016116;28;20045;-79
2023/01/29 00:55:54;;;;;;;22.45;17.50;;;2.70;99.90;;;;;;5015570;28;20484;-79
2023/01/29 00:58:21;;;;;;;25.75;18.23;;;2.80;99.90;;;;;;4997506;28;20080;-79
2023/01/29 01:00:50;;;;;;;22.83;18.07;;;2.70;99.90;;;;;;4998902;28;20163;-79
2023/01/29 01:03:16;;;;;;;25.40;17.40;;;2.70;99.90;;;;;;4997724;28;20037;-79
2023/01/29 01:05:42;;;;;;;22.38;17.35;;;2.70;99.90;;;;;;5015936;28;20168;-79
2023/01/29 01:11:01;;;;;;;21.35;17.45;;;2.70;99.90;;;;;;4996137;28;20057;-79
2023/01/29 01:13:28;;;;;;;24.88;18.20;;;2.70;99.90;;;;;;4988793;28;20129;-79
2023/01/29 01:15:54;;;;;;;22.45;17.67;;;2.80;99.90;;;;;;4989368;28;20074;-79
2023/01/29 01:18:21;;;;;;;23.70;18.17;;;2.70;99.90;;;;;;5014448;28;20053;-79
2023/01/29 01:20:50;;;;;;;23.25;17.70;;;2.80;99.90;;;;;;4996671;28;20056;-79
2023/01/29 01:23:17;;;;;;;22.13;16.83;;;2.80;99.90;;;;;;5010762;28;20044;-79
2023/01/29 01:25:43;;;;;;;22.15;17.48;;;2.80;99.90;;;;;;5014434;28;20080;-79
2023/01/29 01:28:09;;;;;;;23.15;18.73;;;2.80;99.90;;;;;;4996973;28;20434;-79
2023/01/29 01:30:35;;;;;;;23.42;17.08;;;2.80;99.90;;;;;;5015572;28;20080;-79
2023/01/29 01:33:01;;;;;;;24.23;18.33;;;2.80;99.90;;;;;;4997722;28;20369;-79
2023/01/29 01:35:27;;;;;;;23.35;17.08;;;2.80;99.90;;;;;;5015477;28;20117;-79
2023/01/29 01:37:52;;;;;;;22.75;17.92;;;2.80;99.90;;;;;;4996245;28;20142;-79
2023/01/29 01:40:20;;;;;;;24.60;17.95;;;2.80;99.90;;;;;;5008980;28;20041;-79
2023/01/29 01:42:47;;;;;;;;;;;2.80;99.90;;;;;;5016152;28;20541;-79
2023/01/29 01:45:23;;;;;;;26.40;18.52;;;2.80;99.90;;;;;;4994223;28;19933;-79
2023/01/29 01:47:54;;;;;;;22.13;16.67;;;2.80;99.90;;;;;;4977780;28;20476;-79
2023/01/29 01:50:29;;;;;;;22.85;17.63;;;2.80;99.90;;;;;;4987547;28;20129;-79
2023/01/29 01:53:01;;;;;;;21.08;17.25;;;2.80;99.90;;;;;;5014342;28;20054;-79
2023/01/29 01:55:29;;;;;;;23.08;18.10;;;2.80;99.90;;;;;;4981423;28;20054;-79
2023/01/29 01:58:01;;;;;;;22.10;17.90;;;2.80;99.90;;;;;;4998289;28;20157;-79
2023/01/29 02:00:27;;;;;;;22.67;17.73;;;2.80;99.90;;;;;;5012622;28;20042;-78
2023/01/29 02:11:21;;;;;;;25.85;17.42;;;2.80;99.90;;;;;;4985483;28;20410;-78
2023/01/29 02:13:52;;;;;;;26.33;19.00;;;2.80;99.90;;;;;;5009781;28;20077;-78
2023/01/29 02:16:21;;;;;;;21.77;17.48;;;2.80;99.90;;;;;;5012941;28;20053;-78
2023/01/29 02:18:47;;;;;;;27.23;19.00;;;2.80;99.90;;;;;;5013098;28;20381;-78
2023/01/29 02:21:41;;;;;;;23.08;18.05;;;2.80;99.90;;;;;;5011960;28;20494;-78
2023/01/29 02:24:32;;;;;;;26.67;18.85;;;2.80;99.90;;;;;;4995259;28;20053;-78
2023/01/29 02:27:37;;;;;;;23.85;18.15;;;2.80;99.90;;;;;;5006561;28;20046;-78
2023/01/29 02:30:12;;;;;;;25.35;18.85;;;2.80;99.90;;;;;;4990151;28;20133;-78
2023/01/29 02:32:57;;;;;;;23.02;18.45;;;2.80;99.90;;;;;;4974613;28;20404;-78
2023/01/29 02:35:36;;;;;;;24.27;18.45;;;2.80;99.90;;;;;;4992434;28;20052;-78
2023/01/29 02:38:18;;;;;;;24.17;19.25;;;2.80;99.90;;;;;;4995581;28;20497;-78
2023/01/29 02:40:49;;;;;;;25.98;18.90;;;2.80;99.90;;;;;;5013488;28;20042;-78
2023/01/29 02:43:34;;;;;;;24.90;18.25;;;2.80;99.90;;;;;;5013182;28;20060;-78
2023/01/29 02:46:21;;;;;;;22.95;18.50;;;2.80;99.90;;;;;;4995959;28;20054;-78
2023/01/29 02:49:00;;;;;;;24.83;19.13;;;2.80;99.90;;;;;;4998866;28;20041;-78
2023/01/29 02:51:45;;;;;;;24.52;18.83;;;2.90;99.90;;;;;;4994069;28;20096;-77
2023/01/29 02:54:18;;;;;;;26.20;18.80;;;2.90;99.90;;;;;;4995668;28;20453;-77
2023/01/29 02:56:59;;;;;;;27.38;19.88;;;2.90;99.90;;;;;;4994388;28;20074;-77
2023/01/29 02:59:38;;;;;;;26.08;19.35;;;2.90;99.90;;;;;;5012281;28;20388;-77
2023/01/29 03:02:15;;;;;;;24.42;19.30;;;2.90;99.90;;;;;;5008820;28;20121;-77
2023/01/29 03:04:48;;;;;;;28.30;19.42;;;2.90;99.90;;;;;;4993459;28;20042;-77
2023/01/29 03:10:22;;;;;;;28.73;20.23;;;2.90;99.90;;;;;;4994493;28;20049;-77
2023/01/29 03:12:58;;;;;;;24.88;18.40;;;2.90;99.90;;;;;;5013126;28;20080;-77
2023/01/29 03:16:02;;;;;;;27.20;19.55;;;2.90;99.90;;;;;;5012552;28;20050;-78
2023/01/29 03:18:34;;;;;;;24.98;19.80;;;2.90;99.90;;;;;;4937513;29;20100;-78
2023/01/29 03:21:49;;;;;;;27.10;21.27;;;2.90;99.90;;;;;;4933048;29;20079;-78
2023/01/29 03:32:12;;;;;;;27.42;19.73;;;2.90;99.90;;;;;;4952748;28;20051;-78
2023/01/29 03:34:42;;;;;;;26.55;19.40;;;2.90;99.90;;;;;;4938161;29;20083;-78
2023/01/29 03:37:26;;;;;;;24.23;18.70;;;2.90;99.90;;;;;;4936755;29;20520;-78
2023/01/29 03:39:51;;;;;;;25.35;19.20;;;2.90;99.90;;;;;;4936019;28;20338;-78
2023/01/29 03:42:28;;;;;;;26.50;20.13;;;2.90;99.90;;;;;;4936708;29;20079;-78
2023/01/29 03:45:20;;;;;;;25.27;18.60;;;2.90;99.90;;;;;;4932652;29;20115;-78
2023/01/29 03:47:54;;;;;;;26.90;19.98;;;2.90;99.90;;;;;;4934717;29;20090;-78
2023/01/29 03:50:50;;;;;;;26.60;19.52;;;2.90;99.90;;;;;;4951961;29;20054;-78
2023/01/29 03:53:21;;;;;;;25.02;19.80;;;2.90;99.90;;;;;;4947083;28;20499;-78
2023/01/29 03:56:18;;;;;;;26.38;20.20;;;2.90;99.90;;;;;;5004546;28;20495;-78
2023/01/29 03:59:04;;;;;;;25.92;18.67;;;2.90;99.90;;;;;;5009680;28;20045;-77
2023/01/29 04:01:43;;;;;;;26.40;20.02;;;2.90;99.90;;;;;;5011752;28;20042;-77
2023/01/29 04:04:18;;;;;;;28.20;21.20;;;2.90;99.90;;;;;;4997495;28;20049;-77
2023/01/29 04:06:48;;;;;;;27.40;20.20;;;2.90;99.90;;;;;;4997593;28;20046;-77
2023/01/29 04:09:22;;;;;;;26.70;19.98;;;2.90;99.90;;;;;;4997772;28;20089;-77
2023/01/29 04:12:00;;;;;;;28.77;22.02;;;2.90;99.90;;;;;;4998063;28;20082;-77
2023/01/29 04:14:27;;;;;;;28.85;20.33;;;2.90;99.90;;;;;;4993262;28;20485;-77
2023/01/29 04:16:56;;;;;;;28.38;20.90;;;2.90;99.90;;;;;;5014461;28;20073;-77
2023/01/29 04:19:22;;;;;;;28.45;20.80;;;2.90;99.90;;;;;;4995155;28;20488;-77
2023/01/29 04:21:51;;;;;;;28.55;21.02;;;2.90;99.90;;;;;;5014383;28;20108;-77
2023/01/29 04:24:17;;;;;;;25.48;20.45;;;2.90;99.90;;;;;;5013404;28;20570;-77
2023/01/29 04:26:53;;;;;;;27.60;20.80;;;2.90;99.90;;;;;;5013296;28;20136;-77
2023/01/29 04:29:38;;;;;;;24.80;19.98;;;2.90;99.90;;;;;;5013111;28;20245;-77
2023/01/29 04:32:20;;;;;;;26.83;21.95;;;2.90;99.90;;;;;;5012553;28;20129;-77
2023/01/29 04:35:04;;;;;;;24.55;20.05;;;2.90;99.90;;;;;;4996515;28;20049;-77
2023/01/29 04:37:48;;;;;;;28.70;21.30;;;3.00;99.90;;;;;;5013402;28;20042;-77
2023/01/29 04:40:25;;;;;;;25.77;20.13;;;3.00;99.90;;;;;;4996921;28;20044;-77
2023/01/29 04:43:04;;;;;;;25.17;20.88;;;;;;;;;;5010505;28;20056;-77
2023/01/29 04:46:02;;;;;;;30.23;21.38;;;3.00;99.90;;;;;;5010024;28;20037;-77
2023/01/29 04:48:38;;;;;;;26.17;20.42;;;3.00;99.90;;;;;;5008797;28;20368;-77
2023/01/29 04:51:37;;;;;;;26.30;19.63;;;3.00;99.90;;;;;;4977530;28;20056;-77
2023/01/29 04:54:15;;;;;;;25.90;19.85;;;3.00;99.90;;;;;;4976367;28;20058;-77
2023/01/29 04:57:00;;;;;;;26.58;19.45;;;3.10;99.90;;;;;;4998756;28;20045;-77
2023/01/29 04:59:41;;;;;;;24.65;19.83;;;3.10;99.90;;;;;;5013213;28;20049;-77
2023/01/29 05:02:09;;;;;;;26.73;19.38;;;3.10;99.90;;;;;;5008911;28;20045;-77
2023/01/29 05:04:38;;;;;;;24.55;19.48;;;3.10;99.90;;;;;;5013750;28;20042;-77
2023/01/29 05:07:07;;;;;;;22.63;19.00;;;3.10;99.90;;;;;;5011826;28;20053;-77
2023/01/29 05:09:35;;;;;;;24.80;20.05;;;3.20;99.90;;;;;;4996215;28;20136;-77
2023/01/29 05:12:02;;;;;;;25.98;21.23;;;3.10;99.90;;;;;;5013437;28;20096;-77
2023/01/29 05:14:32;;;;;;;23.43;20.13;;;3.10;99.90;;;;;;5013074;28;20353;-77
2023/01/29 05:17:02;;;;;;;25.45;21.05;;;3.20;99.90;;;;;;5013362;28;20042;-77
2023/01/29 05:19:28;;;;;;;25.60;20.63;;;3.20;99.90;;;;;;4995028;28;20046;-78
2023/01/29 05:21:55;;;;;;;24.63;21.23;;;3.20;99.90;;;;;;5013271;28;20148;-77
2023/01/29 05:24:23;;;;;;;23.60;19.83;;;3.20;99.90;;;;;;5015520;28;20081;-77
2023/01/29 05:29:34;;;;;;;23.45;19.33;;;3.20;99.90;;;;;;5012427;28;20050;-77
2023/01/29 05:32:00;;;;;;;26.02;21.13;;;3.30;99.90;;;;;;5012352;28;20038;-77
2023/01/29 05:34:26;;;;;;;25.58;21.20;;;3.30;99.90;;;;;;4992694;28;20105;-77
2023/01/29 05:36:52;;;;;;;24.85;21.33;;;3.20;99.90;;;;;;5013610;28;20045;-77
2023/01/29 05:39:18;;;;;;;23.40;20.17;;;3.30;99.90;;;;;;5012491;28;20050;-77
2023/01/29 05:41:44;;;;;;;24.48;20.55;;;3.30;99.90;;;;;;4996657;28;20420;-77
2023/01/29 05:44:09;;;;;;;26.08;21.25;;;3.30;99.90;;;;;;5014399;28;20077;-77
2023/01/29 05:46:35;;;;;;;25.63;20.50;;;3.30;99.90;;;;;;4995678;28;20049;-77
2023/01/29 05:49:01;;;;;;;25.33;21.13;;;3.30;99.90;;;;;;4995457;28;20479;-77
2023/01/29 05:51:27;;;;;;;26.85;21.48;;;3.30;99.90;;;;;;5013857;28;20046;-77
2023/01/29 05:53:53;;;;;;;26.58;20.52;;;3.30;99.90;;;;;;5012872;28;20041;-78
2023/01/29 05:56:18;;;;;;;27.38;21.73;;;3.30;99.90;;;;;;4996323;28;20422;-78
2023/01/29 05:58:44;;;;;;;27.60;23.02;;;3.30;99.90;;;;;;5012305;28;20038;-78
2023/01/29 06:01:09;;;;;;;24.77;21.55;;;3.30;99.90;;;;;;5014292;28;20461;-78
2023/01/29 06:03:35;;;;;;;26.65;22.02;;;3.30;99.90;;;;;;4997127;28;20053;-78
2023/01/29 06:06:01;;;;;;;27.10;22.23;;;3.30;99.90;;;;;;4996527;28;20515;-78
2023/01/29 06:08:27;;;;;;;24.75;21.60;;;3.30;99.90;;;;;;5013849;28;20159;-78
2023/01/29 06:10:52;;;;;;;24.52;21.33;;;3.30;99.90;;;;;;5013499;28;20137;-78
2023/01/29 06:13:18;;;;;;;26.60;21.95;;;3.30;99.90;;;;;;5013245;28;20451;-78
2023/01/29 06:15:43;;;;;;;26.77;22.48;;;3.30;99.90;;;;;;4996020;28;20046;-78
2023/01/29 06:18:09;;;;;;;25.30;21.45;;;3.30;99.90;;;;;;5013933;28;20118;-78
2023/01/29 06:20:35;;;;;;;26.85;21.48;;;3.20;99.90;;;;;;5011961;28;20053;-77
2023/01/29 06:23:01;;;;;;;24.35;21.05;;;3.20;99.90;;;;;;5013607;28;20049;-78
2023/01/29 06:25:26;;;;;;;26.25;22.17;;;3.20;99.90;;;;;;5011217;28;20034;-77
2023/01/29 06:27:52;;;;;;;25.60;21.08;;;3.30;99.90;;;;;;4994699;28;20132;-77
2023/01/29 06:30:17;;;;;;;25.63;21.77;;;3.30;99.90;;;;;;5010167;28;20034;-77
2023/01/29 06:32:43;;;;;;;28.25;23.45;;;3.30;99.90;;;;;;5011188;28;20368;-78
2023/01/29 06:35:09;;;;;;;26.67;22.48;;;3.20;99.90;;;;;;5010606;28;20040;-77
2023/01/29 06:37:35;;;;;;;33.17;23.08;;;3.30;99.90;;;;;;5013568;28;20046;-77
2023/01/29 06:40:01;;;;;;;28.02;22.15;;;3.30;99.90;;;;;;5010700;28;20400;-77
2023/01/29 06:42:26;;;;;;;27.55;21.63;;;3.20;99.90;;;;;;5012710;28;20037;-77
2023/01/29 06:44:55;;;;;;;30.38;22.92;;;3.20;99.90;;;;;;4977367;28;20468;-77
2023/01/29 06:47:22;;;;;;;29.65;22.33;;;3.20;99.90;;;;;;4982633;28;20515;-77
2023/01/29 06:49:48;;;;;;;27.98;22.65;;;3.20;99.90;;;;;;5012996;28;20072;-77
2023/01/29 06:52:14;;;;;;;35.10;22.38;;;3.20;99.90;;;;;;5010824;28;20121;-77
2023/01/29 06:54:39;;;;;;;27.33;22.67;;;3.20;99.90;;;;;;5012910;28;20077;-78
2023/01/29 06:57:05;;;;;;;29.95;23.35;;;3.20;99.90;;;;;;4991798;28;20050;-78
2023/01/29 06:59:30;;;;;;;30.40;24.13;;;3.20;99.90;;;;;;5009252;28;20073;-78
2023/01/29 07:01:56;;;;;;;29.50;23.60;;;3.10;99.90;;;;;;5006276;28;20042;-78
2023/01/29 07:04:21;;;;;;;31.13;22.88;;;3.10;99.90;;;;;;5010647;28;20041;-78
2023/01/29 07:06:47;;;;;;;29.42;22.50;;;3.10;99.90;;;;;;5011739;28;20121;-78
2023/01/29 07:09:13;;;;;;;29.20;22.98;;;3.10;99.90;;;;;;5012955;28;20050;-78
2023/01/29 07:11:39;;;;;;;30.38;24.38;;;3.10;99.90;;;;;;5009910;28;20501;-78
2023/01/29 07:14:05;;;;;;;28.05;22.75;;;3.10;99.90;;;;;;5012114;28;20044;-78
2023/01/29 07:16:30;;;;;;;29.08;24.05;;;3.00;99.90;;;;;;5011399;28;20120;-78
2023/01/29 07:18:56;;;;;;;28.13;22.13;;;3.00;99.90;;;;;;5007939;28;20097;-78
2023/01/29 07:21:22;;;;;;;27.42;21.52;;;3.00;99.90;;;;;;5011675;28;20042;-77
2023/01/29 07:23:47;;;;;;;29.80;24.05;;;3.00;99.90;;;;;;5012918;28;20042;-78
2023/01/29 07:26:13;;;;;;;27.33;23.42;;;3.00;99.90;;;;;;5012901;28;20041;-78
2023/01/29 07:28:39;;;;;;;29.70;23.05;;;3.00;99.90;;;;;;5013038;28;20392;-78
2023/01/29 07:31:06;;;;;;;28.90;24.13;;;3.00;99.90;;;;;;5010572;28;20053;-78
2023/01/29 07:33:32;;;;;;;29.63;23.55;;;3.00;99.90;;;;;;5007916;28;20093;-77
2023/01/29 07:35:58;;;;;;;26.95;22.70;;;3.00;99.90;;;;;;4992954;28;20106;-77
2023/01/29 07:38:24;;;;;;;28.67;23.20;;;3.00;99.90;;;;;;5005806;28;20083;-77
2023/01/29 07:40:53;;;;;;;27.08;22.45;;;3.10;99.90;;;;;;5017496;28;20073;-77
2023/01/29 07:43:19;;;;;;;30.42;24.38;;;3.00;99.90;;;;;;5019339;28;20096;-77
2023/01/29 07:45:45;;;;;;;28.08;23.67;;;3.10;99.90;;;;;;5018366;28;20477;-77
2023/01/29 07:48:12;;;;;;;32.17;23.48;;;3.00;99.90;;;;;;5018882;28;20042;-77
2023/01/29 07:50:38;;;;;;;30.55;23.15;;;3.00;99.90;;;;;;5017040;28;20030;-78
2023/01/29 07:53:04;;;;;;;28.70;22.73;;;3.00;99.90;;;;;;5000213;28;20124;-78
2023/01/29 07:55:30;;;;;;;28.00;21.70;;;3.00;99.90;;;;;;5007445;28;20414;-76
2023/01/29 07:57:57;;;;;;;31.08;23.60;;;3.10;99.90;;;;;;4999838;28;20049;-77
2023/01/29 08:00:22;;;;;;;28.27;22.60;;;3.00;99.90;;;;;;5017737;28;20045;-77
2023/01/29 08:02:48;;;;;;;29.00;22.58;;;3.10;99.90;;;;;;5019492;28;20088;-77
2023/01/29 08:05:14;;;;;;;30.10;24.02;;;3.10;99.90;;;;;;5001372;28;20092;-78
2023/01/29 08:07:39;;;;;;;30.05;23.38;;;3.10;99.90;;;;;;5017210;28;20492;-78
2023/01/29 08:10:05;;;;;;;29.08;23.40;;;3.10;99.90;;;;;;4999605;28;20055;-78
2023/01/29 08:12:30;;;;;;;30.67;23.60;;;3.10;99.90;;;;;;4989569;28;20050;-78
2023/01/29 08:14:56;;;;;;;29.30;22.88;;;3.10;99.90;;;;;;5018528;28;20041;-78
2023/01/29 08:17:22;;;;;;;29.08;22.85;;;3.10;99.90;;;;;;5018019;28;20045;-78
2023/01/29 08:19:47;;;;;;;29.27;23.02;;;3.10;99.90;;;;;;5001779;28;20052;-78
2023/01/29 08:22:15;;;;;;;29.58;22.60;;;3.10;99.90;;;;;;5001527;28;20053;-78
2023/01/29 08:24:41;;;;;;;27.80;22.35;;;3.10;99.90;;;;;;5004460;28;20382;-79
2023/01/29 08:27:06;;;;;;;30.45;23.48;;;3.10;99.90;;;;;;4992825;28;20052;-79
2023/01/29 08:29:32;;;;;;;30.52;23.55;;;3.10;99.90;;;;;;5018150;28;20037;-78
2023/01/29 08:31:58;;;;;;;28.42;22.98;;;3.10;99.90;;;;;;5017868;28;20069;-75
2023/01/29 08:34:23;;;;;;;26.70;22.40;;;3.20;99.90;;;;;;5009766;28;20064;-75
2023/01/29 08:36:49;;;;;;;31.05;23.67;;;3.20;99.90;;;;;;5009956;28;20097;-74
2023/01/29 08:39:14;;;;;;;27.02;22.55;;;3.10;99.90;;;;;;5008802;28;20096;-74
2023/01/29 08:41:40;;;;;;;32.47;23.73;;;3.10;99.90;;;;;;5013120;28;20124;-75
2023/01/29 08:44:06;;;;;;;30.23;22.98;;;3.20;99.90;;;;;;5012786;28;20053;-75
2023/01/29 08:46:31;;;;;;;28.48;23.08;;;3.20;99.90;;;;;;5012192;28;20041;-75
2023/01/29 08:48:57;;;;;;;26.60;22.90;;;3.20;99.90;;;;;;5010893;28;20072;-75
2023/01/29 08:51:25;;;;;;;28.77;23.40;;;3.20;99.90;;;;;;5009068;28;20057;-75
2023/01/29 08:53:51;;;;;;;29.38;24.17;;;3.20;99.90;;;;;;5010434;28;20053;-77
2023/01/29 08:56:16;;;;;;;28.63;23.50;;;3.20;99.90;;;;;;5009457;28;20038;-74
2023/01/29 08:58:43;;;;;;;29.30;23.00;;;3.30;99.90;;;;;;5010743;28;20046;-75
2023/01/29 09:01:11;;;;;;;27.05;22.38;;;3.30;99.90;;;;;;5012294;28;20073;-75
2023/01/29 09:03:39;;;;;;;27.35;23.15;;;3.30;99.90;;;;;;5011133;28;20096;-75
2023/01/29 09:06:05;;;;;;;30.13;23.98;;;3.30;99.90;;;;;;5010587;28;20060;-75
2023/01/29 09:08:31;;;;;;;28.55;23.27;;;3.30;99.90;;;;;;5007519;28;20375;-76
2023/01/29 09:11:00;;;;;;;28.90;23.65;;;;;;;;;;5008578;28;20053;-76
2023/01/29 09:13:26;;;;;;;26.98;23.13;;;3.40;99.90;;;;;;5015243;28;20050;-76
2023/01/29 09:15:51;;;;;;;27.95;23.40;;;3.40;99.90;;;;;;5015221;28;20112;-76
2023/01/29 09:18:17;;;;;;;27.55;22.63;;;3.40;99.90;;;;;;5011628;28;20053;-76
2023/01/29 09:20:43;;;;;;;27.35;23.92;;;3.50;99.90;;;;;;5012864;28;20134;-75
2023/01/29 09:23:09;;;;;;;28.23;22.98;;;3.50;99.90;;;;;;5007853;28;20145;-76
2023/01/29 09:25:36;;;;;;;26.40;22.95;;;3.50;99.90;;;;;;4978592;28;20121;-76
2023/01/29 09:28:02;;;;;;;27.88;23.25;;;3.50;99.90;;;;;;5006462;28;20072;-77
2023/01/29 09:30:27;;;;;;;27.35;23.23;;;3.50;99.90;;;;;;5015478;28;20053;-77
2023/01/29 09:32:53;;;;;;;29.08;23.33;;;3.50;99.90;;;;;;4994468;28;20042;-77
2023/01/29 09:35:20;;;;;;;28.42;23.33;;;3.60;99.90;;;;;;4996399;28;20081;-77
2023/01/29 09:37:49;;;;;;;27.73;23.27;;;3.60;99.90;;;;;;5002450;28;20034;-77
2023/01/29 09:40:24;;;;;;;26.95;23.00;;;3.60;99.90;;;;;;4988586;28;20631;-77
2023/01/29 09:43:13;;;;;;;27.92;23.90;;;3.70;99.90;;;;;;5008335;28;20065;-77
2023/01/29 09:45:52;;;;;;;29.40;22.75;;;3.60;99.90;;;;;;4998493;28;20060;-76
2023/01/29 09:48:20;;;;;;;26.85;23.63;;;3.70;99.90;;;;;;5005513;28;20038;-75
2023/01/29 09:50:50;;;;;;;28.08;23.88;;;3.80;99.90;;;;;;5006382;28;20077;-76
2023/01/29 09:53:34;;;;;;;31.05;24.45;;;3.80;99.90;;;;;;5008741;28;20052;-76
2023/01/29 09:56:10;;;;;;;26.88;23.25;;;3.80;99.90;;;;;;5006918;28;20077;-76
2023/01/29 09:58:38;;;;;;;29.58;23.70;;;3.90;99.90;;;;;;5003294;28;20049;-76
2023/01/29 10:01:18;;;;;;;27.50;24.35;;;3.90;99.90;;;;;;5008762;28;20038;-76
2023/01/29 10:04:20;;;;;;;28.27;25.17;;;4.00;99.90;;;;;;5008321;28;20088;-76
2023/01/29 10:07:01;;;;;;;27.10;22.95;;;4.00;99.90;;;;;;5004379;28;20388;-76
2023/01/29 10:09:40;;;;;;;28.38;23.10;;;4.10;99.90;;;;;;5001611;28;20058;-76
2023/01/29 10:12:11;;;;;;;28.80;23.40;;;4.10;99.90;;;;;;5002445;28;20096;-76
2023/01/29 10:15:21;;;;;;;29.08;23.60;;;4.20;99.90;;;;;;4986638;28;20042;-76
2023/01/29 10:18:06;;;;;;;28.58;22.77;;;4.30;99.90;;;;;;4982640;28;20045;-76
2023/01/29 10:20:59;;;;;;;27.58;21.67;;;4.40;99.90;;;;;;5003497;28;20048;-76
2023/01/29 10:23:40;;;;;;;30.20;23.35;;;4.50;99.90;;;;;;5004427;28;20712;-76
2023/01/29 10:26:11;;;;;;;27.83;22.65;;;4.60;99.90;;;;;;4986369;28;20056;-76
2023/01/29 10:28:46;;;;;;;25.25;21.42;;;4.60;99.90;;;;;;5003477;28;20046;-76
2023/01/29 10:31:28;;;;;;;29.40;23.58;;;4.70;99.90;;;;;;5005306;28;20046;-76
2023/01/29 10:33:56;;;;;;;26.00;22.45;;;4.70;99.90;;;;;;5002678;28;20582;-76
2023/01/29 10:36:31;;;;;;;26.00;22.50;;;4.80;99.90;;;;;;5003380;28;20046;-76
2023/01/29 10:38:56;;;;;;;26.50;22.92;;;4.90;99.90;;;;;;5002443;28;20041;-76
2023/01/29 10:41:46;;;;;;;26.05;22.10;;;5.00;99.90;;;;;;5006003;28;20042;-76
2023/01/29 10:44:49;;;;;;;30.63;23.27;;;5.00;99.90;;;;;;4989674;28;20428;-77
2023/01/29 10:47:33;;;;;;;26.60;22.05;;;5.10;99.90;;;;;;5001856;28;20069;-77
2023/01/29 10:50:19;;;;;;;27.27;21.73;;;5.10;99.90;;;;;;5009802;28;20050;-77
2023/01/29 10:53:09;;;;;;;26.52;23.23;;;5.10;99.90;;;;;;5008273;28;20069;-76
2023/01/29 10:56:11;;;;;;;25.95;22.75;;;5.10;99.90;;;;;;5004983;28;20104;-76
2023/01/29 10:58:53;;;;;;;28.20;22.63;;;5.00;99.90;;;;;;5005050;28;20041;-76
2023/01/29 11:01:19;;;;;;;26.23;21.63;;;5.00;99.90;;;;;;5004847;28;20045;-76
2023/01/29 11:03:45;;;;;;;27.00;22.98;;;5.00;99.90;;;;;;5004047;28;20046;-77
2023/01/29 11:06:14;;;;;;;27.77;22.75;;;5.00;99.90;;;;;;4987078;28;20042;-77
2023/01/29 11:08:40;;;;;;;29.30;23.20;;;5.00;99.90;;;;;;5004405;28;21317;-76
2023/01/29 11:11:13;;;;;;;27.63;23.30;;;5.00;99.90;;;;;;5004435;28;20407;-76
2023/01/29 11:13:54;;;;;;;26.85;22.48;;;5.10;99.90;;;;;;5002087;28;20050;-76
2023/01/29 11:16:19;;;;;;;24.33;21.50;;;5.10;99.90;;;;;;4997877;28;20493;-76
2023/01/29 11:19:01;;;;;;;26.58;22.52;;;5.10;99.90;;;;;;5005810;28;20057;-76
2023/01/29 11:21:28;;;;;;;28.02;22.17;;;5.10;99.90;;;;;;5001583;28;20045;-76
2023/01/29 11:24:07;;;;;;;26.90;21.83;;;5.00;99.90;;;;;;5001250;28;20045;-77
2023/01/29 11:26:36;;;;;;;27.98;22.60;;;5.00;99.90;;;;;;4985650;28;20053;-77
2023/01/29 11:29:02;;;;;;;27.00;21.85;;;5.10;99.90;;;;;;4999167;28;20046;-77
2023/01/29 11:31:38;;;;;;;28.27;21.80;;;5.10;99.90;;;;;;5005043;28;20038;-77
2023/01/29 11:34:19;;;;;;;27.33;21.58;;;5.10;99.90;;;;;;5002074;28;20169;-77
2023/01/29 11:36:45;;;;;;;24.95;21.15;;;5.10;99.90;;;;;;5005288;28;20057;-77
2023/01/29 11:39:21;;;;;;;24.70;20.80;;;5.10;99.90;;;;;;5003375;28;20682;-77
2023/01/29 11:41:57;;;;;;;28.88;22.90;;;5.10;99.90;;;;;;5004961;28;20510;-77
2023/01/29 11:44:28;;;;;;;27.45;22.25;;;5.10;99.90;;;;;;5002608;28;20042;-77
2023/01/29 11:46:56;;;;;;;26.90;22.90;;;5.00;99.90;;;;;;4984207;28;20096;-77
2023/01/29 11:49:32;;;;;;;28.58;22.95;;;5.00;99.90;;;;;;5002882;28;20041;-77
2023/01/29 11:52:01;;;;;;;28.48;23.10;;;4.90;99.90;;;;;;4983441;28;20050;-77
2023/01/29 11:54:31;;;;;;;25.60;22.23;;;4.90;99.90;;;;;;4984947;28;20039;-75
2023/01/29 11:56:57;;;;;;;27.15;22.38;;;4.90;99.90;;;;;;5006670;28;20376;-77
2023/01/29 11:59:55;;;;;;;28.83;23.10;;;4.90;99.90;;;;;;4988830;28;20077;-77
2023/01/29 12:02:40;;;;;;;;;;;4.90;99.90;;;;;;5007902;28;20141;-77
2023/01/29 12:05:18;;;;;;;28.60;23.05;;;4.80;99.90;;;;;;5008497;28;19975;-77
2023/01/29 12:07:47;;;;;;;28.05;23.50;;;4.80;99.90;;;;;;5005992;28;20052;-77
2023/01/29 12:10:37;;;;;;;29.13;23.70;;;4.70;99.90;;;;;;5006374;28;20382;-77
2023/01/29 12:13:05;;;;;;;28.60;23.90;;;4.70;99.90;;;;;;5006709;28;20050;-77
2023/01/29 12:15:30;;;;;;;28.42;23.83;;;4.80;99.90;;;;;;4977782;28;20132;-76
2023/01/29 12:18:17;;;;;;;32.25;24.38;;;4.80;99.90;;;;;;5005391;28;20046;-77
2023/01/29 12:20:47;;;;;;;28.33;23.67;;;4.80;99.90;;;;;;4982020;28;20053;-78
2023/01/29 12:23:31;;;;;;;26.55;22.83;;;4.80;99.90;;;;;;5005064;28;20389;-78
2023/01/29 12:26:05;;;;;;;28.15;23.52;;;4.90;99.90;;;;;;4973300;28;21359;-78
2023/01/29 12:28:40;;;;;;;26.67;23.08;;;5.00;99.90;;;;;;4988324;28;20081;-78
2023/01/29 12:31:24;;;;;;;27.70;22.85;;;4.90;99.90;;;;;;4988908;28;20488;-78
2023/01/29 12:34:27;;;;;;;30.48;23.73;;;5.00;99.90;;;;;;4985185;28;20100;-77
2023/01/29 12:36:59;;;;;;;26.92;22.70;;;5.00;99.90;;;;;;4986813;28;20056;-76
2023/01/29 12:39:25;;;;;;;28.70;23.50;;;5.00;99.90;;;;;;4986809;28;20073;-75
2023/01/29 12:42:12;;;;;;;27.00;22.88;;;5.00;99.90;;;;;;5006260;28;20452;-76
2023/01/29 12:44:51;;;;;;;30.20;22.38;;;5.00;99.90;;;;;;4987596;28;20042;-73
2023/01/29 12:47:40;;;;;;;27.20;23.38;;;5.10;99.90;;;;;;4989034;28;20050;-77
2023/01/29 12:50:18;;;;;;;26.90;22.23;;;5.10;99.90;;;;;;5004583;28;20054;-76
2023/01/29 12:52:54;;;;;;;26.58;23.42;;;5.20;99.90;;;;;;5005588;28;20054;-77
2023/01/29 12:55:41;;;;;;;29.27;22.90;;;5.10;99.90;;;;;;5010540;28;20132;-77
2023/01/29 12:58:19;;;;;;;26.52;23.33;;;5.20;99.90;;;;;;5008292;28;20385;-77
2023/01/29 13:00:49;;;;;;;27.27;23.30;;;5.20;99.90;;;;;;5012015;28;20414;-77
2023/01/29 13:03:33;;;;;;;28.77;24.08;;;5.20;99.90;;;;;;5015076;28;20077;-77
2023/01/29 13:06:05;;;;;;;29.73;23.08;;;5.20;99.90;;;;;;5015776;28;20049;-77
2023/01/29 13:08:35;;;;;;;29.75;23.90;;;5.20;99.90;;;;;;5014777;28;20457;-77
2023/01/29 13:11:07;;;;;;;26.05;22.83;;;5.30;99.90;;;;;;5015059;28;20034;-77
2023/01/29 13:13:51;;;;;;;27.10;23.35;;;5.20;99.90;;;;;;4997175;28;20060;-77
2023/01/29 13:16:22;;;;;;;31.13;25.17;;;5.10;99.90;;;;;;5011867;28;20030;-77
2023/01/29 13:19:04;;;;;;;30.15;24.88;;;5.10;99.90;;;;;;5013966;28;20050;-77
2023/01/29 13:21:35;;;;;;;30.90;24.75;;;5.00;99.90;;;;;;5014890;28;20046;-77
2023/01/29 13:24:09;;;;;;;28.85;24.85;;;5.00;99.90;;;;;;4997087;28;20046;-77
2023/01/29 13:26:36;;;;;;;29.40;25.33;;;5.00;99.90;;;;;;5014645;28;20053;-77
2023/01/29 13:29:04;;;;;;;31.63;26.45;;;5.00;99.90;;;;;;5013753;28;20046;-77
2023/01/29 13:31:36;;;;;;;32.85;26.75;;;4.90;99.90;;;;;;5007069;28;20069;-77
2023/01/29 13:34:19;;;;;;;32.13;27.50;;;4.80;99.90;;;;;;5012450;28;20046;-77